Time;durP1;ratioP1;P1;durP2;ratioP2;P2;SDS_P1;SDS_P2;PMS_P1;PMS_P2;Temp;Humidity;BMP_temperature;BMP_pressure;BME280_temperature;BME280_humidity;BME280_pressure;Samples;Min_cycle;Max_cycle;Signal;HPM_P1;HPM_P2
2023/03/28 00:02:08;;;;;;;0.70;0.70;;;;;2.20;96683.00;;;;5026885;28;20927;-67
2023/03/28 00:04:56;;;;;;;0.50;0.50;;;;;2.30;96682.00;;;;5019184;28;20853;-67
2023/03/28 00:07:45;;;;;;;1.03;0.60;;;;;1.60;96677.00;;;;5019606;28;20473;-70
2023/03/28 00:10:34;;;;;;;2.10;0.87;;;;;1.80;96677.00;;;;5021016;28;20541;-67
2023/03/28 00:13:23;;;;;;;1.43;1.00;;;;;1.70;96680.00;;;;5024048;28;20486;-66
2023/03/28 00:16:14;;;;;;;0.60;0.60;;;;;2.20;96696.00;;;;5027111;28;20490;-66
2023/03/28 00:19:05;;;;;;;5.70;0.67;;;;;2.30;96693.00;;;;5025070;28;20428;-67
2023/03/28 00:21:56;;;;;;;1.27;0.50;;;;;2.30;96699.00;;;;5025346;28;20431;-67
2023/03/28 00:24:47;;;;;;;0.50;0.50;;;;;2.60;96709.00;;;;5025441;28;20435;-67
2023/03/28 00:27:36;;;;;;;1.03;0.80;;;;;2.70;96707.00;;;;5024230;28;20858;-67
2023/03/28 00:30:26;;;;;;;1.00;0.50;;;;;2.80;96724.00;;;;5025017;28;20463;-67
2023/03/28 00:33:17;;;;;;;0.83;0.70;;;;;2.90;96723.00;;;;5025740;28;20429;-67
2023/03/28 00:36:09;;;;;;;0.83;0.73;;;;;2.70;96731.00;;;;5026746;28;20555;-71
2023/03/28 00:39:00;;;;;;;0.83;0.83;;;;;2.80;96747.00;;;;5029923;28;20427;-68
2023/03/28 00:41:49;;;;;;;0.50;0.50;;;;;3.30;96742.00;;;;5023050;28;20927;-67
2023/03/28 00:44:43;;;;;;;0.80;0.80;;;;;3.40;96755.00;;;;5023894;28;20448;-67
2023/03/28 00:47:42;;;;;;;0.70;0.70;;;;;3.30;96748.00;;;;5023260;28;20441;-67
2023/03/28 00:50:36;;;;;;;0.50;0.50;;;;;3.40;96745.00;;;;5028645;28;20460;-67
2023/03/28 00:53:26;;;;;;;0.70;0.70;;;;;3.40;96739.00;;;;5027977;28;20490;-67
2023/03/28 00:56:17;;;;;;;0.67;0.67;;;;;3.30;96732.00;;;;5021956;28;20488;-67
2023/03/28 00:59:09;;;;;;;1.43;0.53;;;;;3.30;96732.00;;;;5024425;28;20438;-67
2023/03/28 01:01:58;;;;;;;2.67;0.50;;;;;3.20;96742.00;;;;5021525;28;20928;-68
2023/03/28 01:04:51;;;;;;;2.47;0.67;;;;;3.00;96742.00;;;;5024362;28;20490;-67
2023/03/28 01:07:45;;;;;;;1.13;0.90;;;;;3.20;96758.00;;;;5027525;28;20479;-67
2023/03/28 01:10:34;;;;;;;0.90;0.70;;;;;3.10;96749.00;;;;5028993;28;20464;-68
2023/03/28 01:13:27;;;;;;;0.60;0.57;;;;;3.10;96749.00;;;;5024788;28;20498;-68
2023/03/28 01:16:17;;;;;;;0.70;0.70;;;;;2.90;96758.00;;;;5025924;28;20445;-68
2023/03/28 01:19:06;;;;;;;3.97;0.90;;;;;3.00;96759.00;;;;5026845;28;20421;-68
2023/03/28 01:22:23;;;;;;;3.80;1.20;;;;;3.00;96781.00;;;;5026285;28;20497;-68
2023/03/28 01:25:51;;;;;;;0.83;0.83;;;;;2.80;96782.00;;;;5006363;28;20472;-68
2023/03/28 01:28:56;;;;;;;0.70;0.70;;;;;2.80;96776.00;;;;5019240;28;20424;-68
2023/03/28 01:32:08;;;;;;;0.77;0.77;;;;;2.80;96784.00;;;;5022344;28;20456;-68
2023/03/28 01:35:26;;;;;;;0.77;0.77;;;;;2.70;96778.00;;;;5025087;28;20487;-68
2023/03/28 01:38:19;;;;;;;2.03;1.40;;;;;2.50;96787.00;;;;5022235;28;20433;-68
2023/03/28 01:41:13;;;;;;;2.73;1.10;;;;;2.60;96797.00;;;;5025309;28;20504;-68
2023/03/28 01:44:08;;;;;;;0.80;0.80;;;;;2.60;96793.00;;;;5018395;28;20473;-68
2023/03/28 01:47:01;;;;;;;1.00;0.90;;;;;2.60;96781.00;;;;5021218;28;20432;-68
2023/03/28 01:50:00;;;;;;;1.07;1.07;;;;;2.70;96781.00;;;;5025371;28;20987;-68
2023/03/28 01:52:54;;;;;;;0.87;0.80;;;;;2.60;96790.00;;;;5025676;28;20429;-68
2023/03/28 01:55:50;;;;;;;0.90;0.90;;;;;2.50;96783.00;;;;5021311;28;20421;-68
2023/03/28 01:58:44;;;;;;;1.27;1.03;;;;;2.60;96792.00;;;;5021946;28;20428;-68
2023/03/28 02:01:36;;;;;;;0.63;0.63;;;;;2.50;96783.00;;;;5027809;28;20498;-68
2023/03/28 02:04:27;;;;;;;2.80;0.73;;;;;2.50;96796.00;;;;5023214;28;20432;-68
2023/03/28 02:07:17;;;;;;;1.20;0.80;;;;;2.50;96794.00;;;;5023806;28;20448;-68
2023/03/28 02:10:10;;;;;;;2.57;2.10;;;;;2.50;96797.00;;;;5026142;28;20521;-68
2023/03/28 02:13:02;;;;;;;2.50;1.10;;;;;2.60;96796.00;;;;5024955;28;20460;-67
2023/03/28 02:15:54;;;;;;;0.80;0.70;;;;;2.60;96805.00;;;;5019262;28;20437;-68
2023/03/28 02:18:48;;;;;;;1.50;0.93;;;;;2.60;96809.00;;;;5021591;28;20424;-68
2023/03/28 02:21:40;;;;;;;1.53;1.43;;;;;2.60;96804.00;;;;5022266;28;20439;-68
2023/03/28 02:24:30;;;;;;;1.50;1.13;;;;;2.60;96808.00;;;;5026569;28;20570;-68
2023/03/28 02:27:21;;;;;;;1.00;1.00;;;;;2.60;96813.00;;;;5025229;28;20436;-68
2023/03/28 02:30:12;;;;;;;2.43;1.17;;;;;2.60;96805.00;;;;5020214;28;20445;-68
2023/03/28 02:33:03;;;;;;;0.90;0.90;;;;;2.60;96819.00;;;;5022992;28;20484;-68
2023/03/28 02:35:57;;;;;;;1.90;1.77;;;;;2.70;96828.00;;;;5025205;28;20454;-68
2023/03/28 02:38:56;;;;;;;1.87;1.73;;;;;2.50;96831.00;;;;5016683;28;20432;-68
2023/03/28 02:41:57;;;;;;;1.50;1.40;;;;;2.50;96846.00;;;;5018128;28;20424;-68
2023/03/28 02:45:09;;;;;;;2.53;1.40;;;;;2.50;96834.00;;;;5020379;28;20470;-68
2023/03/28 02:48:09;;;;;;;1.43;1.17;;;;;2.60;96841.00;;;;5023787;28;20506;-68
2023/03/28 02:51:07;;;;;;;2.17;1.20;;;;;2.60;96853.00;;;;5021588;28;20540;-68
2023/03/28 02:54:01;;;;;;;0.80;0.80;;;;;2.60;96846.00;;;;5020978;28;20547;-68
2023/03/28 02:56:55;;;;;;;1.07;1.07;;;;;2.40;96841.00;;;;5016243;28;20514;-68
2023/03/28 02:59:48;;;;;;;3.20;2.47;;;;;2.40;96848.00;;;;5018805;28;20448;-68
2023/03/28 03:02:37;;;;;;;3.97;2.30;;;;;2.40;96842.00;;;;5025915;28;20833;-69
2023/03/28 03:05:27;;;;;;;1.80;1.37;;;;;2.50;96836.00;;;;5027028;28;20429;-69
2023/03/28 03:08:16;;;;;;;1.57;1.40;;;;;2.40;96847.00;;;;5025779;28;20482;-69
2023/03/28 03:11:06;;;;;;;1.33;1.13;;;;;2.30;96844.00;;;;5027961;28;20507;-69
2023/03/28 03:13:56;;;;;;;0.60;0.60;;;;;2.30;96848.00;;;;5018593;28;20466;-69
2023/03/28 03:16:45;;;;;;;0.90;0.70;;;;;2.30;96842.00;;;;5021146;28;20921;-68
2023/03/28 03:19:34;;;;;;;0.70;0.70;;;;;2.20;96853.00;;;;5026010;28;20926;-68
2023/03/28 03:22:24;;;;;;;0.60;0.60;;;;;2.10;96852.00;;;;5027390;28;20862;-68
2023/03/28 03:25:13;;;;;;;0.70;0.70;;;;;1.80;96846.00;;;;5019401;28;20491;-68
2023/03/28 03:28:02;;;;;;;0.50;0.50;;;;;2.00;96857.00;;;;5023547;28;20440;-69
2023/03/28 03:30:52;;;;;;;1.90;0.90;;;;;2.00;96868.00;;;;5019799;28;20451;-69
2023/03/28 03:33:41;;;;;;;0.90;0.90;;;;;2.10;96871.00;;;;5020867;28;20486;-69
2023/03/28 03:36:30;;;;;;;0.60;0.60;;;;;2.10;96865.00;;;;5028585;28;20447;-69
2023/03/28 03:39:21;;;;;;;0.63;0.63;;;;;2.10;96884.00;;;;5025426;28;20432;-69
2023/03/28 03:42:10;;;;;;;0.60;0.60;;;;;2.20;96880.00;;;;5027756;28;20514;-69
2023/03/28 03:44:58;;;;;;;0.50;0.50;;;;;2.10;96894.00;;;;5025976;28;20424;-68
2023/03/28 03:47:47;;;;;;;0.60;0.60;;;;;2.20;96897.00;;;;5025125;28;20432;-68
2023/03/28 03:50:36;;;;;;;0.80;0.80;;;;;2.20;96901.00;;;;5024992;28;20458;-69
2023/03/28 03:53:25;;;;;;;1.47;0.60;;;;;2.20;96895.00;;;;5029134;28;20510;-69
2023/03/28 03:56:16;;;;;;;0.77;0.77;;;;;2.30;96903.00;;;;5023328;28;20428;-68
2023/03/28 03:59:05;;;;;;;0.60;0.60;;;;;2.30;96897.00;;;;5023040;28;20465;-69
2023/03/28 04:01:54;;;;;;;0.70;0.70;;;;;2.30;96894.00;;;;5028474;28;21118;-69
2023/03/28 04:04:44;;;;;;;0.87;0.87;;;;;2.20;96913.00;;;;5019002;28;20849;-69
2023/03/28 04:07:33;;;;;;;2.43;1.57;;;;;2.20;96907.00;;;;5025553;28;20441;-69
2023/03/28 04:10:22;;;;;;;1.80;1.70;;;;;2.00;96908.00;;;;5025003;28;20883;-69
2023/03/28 04:13:12;;;;;;;1.13;1.00;;;;;2.00;96922.00;;;;5025082;28;20557;-69
2023/03/28 04:16:01;;;;;;;0.70;0.70;;;;;1.90;96913.00;;;;5021163;28;21165;-69
2023/03/28 04:18:51;;;;;;;0.40;0.40;;;;;1.90;96919.00;;;;5014357;28;20424;-69
2023/03/28 04:21:41;;;;;;;0.80;0.70;;;;;1.70;96909.00;;;;5028152;28;20865;-69
2023/03/28 04:24:30;;;;;;;0.60;0.60;;;;;1.60;96920.00;;;;5026111;28;20490;-68
2023/03/28 04:27:19;;;;;;;0.70;0.70;;;;;1.40;96913.00;;;;5028186;28;20434;-69
2023/03/28 04:30:10;;;;;;;2.23;0.83;;;;;1.40;96936.00;;;;5021355;28;20449;-68
2023/03/28 04:33:00;;;;;;;0.80;0.80;;;;;1.50;96921.00;;;;5026283;28;21062;-68
2023/03/28 04:35:50;;;;;;;0.87;0.80;;;;;1.40;96928.00;;;;5020780;28;20451;-68
2023/03/28 04:38:40;;;;;;;0.90;0.90;;;;;1.40;96932.00;;;;5022009;28;20472;-68
2023/03/28 04:41:30;;;;;;;0.77;0.77;;;;;1.30;96928.00;;;;5018008;28;20452;-68
2023/03/28 04:44:20;;;;;;;0.70;0.70;;;;;1.30;96931.00;;;;5022836;28;20444;-68
2023/03/28 04:47:11;;;;;;;2.10;0.70;;;;;1.20;96934.00;;;;5018570;28;20460;-68
2023/03/28 04:50:00;;;;;;;0.73;0.73;;;;;0.90;96931.00;;;;5021315;28;20452;-68
2023/03/28 04:52:49;;;;;;;0.80;0.80;;;;;0.90;96943.00;;;;5025280;28;20462;-69
2023/03/28 04:55:38;;;;;;;0.70;0.70;;;;;1.00;96947.00;;;;5027105;28;20429;-69
2023/03/28 04:58:27;;;;;;;1.17;1.07;;;;;0.90;96936.00;;;;5025879;28;20477;-69
2023/03/28 05:01:16;;;;;;;0.73;0.67;;;;;0.80;96937.00;;;;5021291;28;20540;-69
2023/03/28 05:04:07;;;;;;;0.80;0.73;;;;;0.70;96940.00;;;;5016086;28;20916;-69
2023/03/28 05:06:56;;;;;;;0.60;0.60;;;;;0.90;96947.00;;;;5018833;28;20534;-68
2023/03/28 05:09:45;;;;;;;0.80;0.80;;;;;1.00;96948.00;;;;5024630;28;21012;-69
2023/03/28 05:12:34;;;;;;;0.67;0.67;;;;;0.70;96949.00;;;;5023798;28;20512;-69
2023/03/28 05:15:23;;;;;;;0.90;0.90;;;;;0.80;96940.00;;;;5025635;28;20976;-68
2023/03/28 05:18:12;;;;;;;1.50;1.40;;;;;0.60;96957.00;;;;5022368;28;21039;-69
2023/03/28 05:21:03;;;;;;;1.83;1.70;;;;;0.90;96957.00;;;;5027667;28;20971;-69
2023/03/28 05:23:52;;;;;;;0.97;0.97;;;;;0.50;96955.00;;;;5017062;28;20433;-69
2023/03/28 05:26:41;;;;;;;1.30;1.10;;;;;0.60;96942.00;;;;5019152;28;20456;-70
2023/03/28 05:29:30;;;;;;;1.10;1.10;;;;;0.70;96940.00;;;;5019357;28;20464;-70
2023/03/28 05:32:19;;;;;;;1.17;0.80;;;;;0.60;96942.00;;;;5025272;28;20496;-70
2023/03/28 05:35:10;;;;;;;0.70;0.70;;;;;0.70;96943.00;;;;5021002;28;21024;-70
2023/03/28 05:38:01;;;;;;;0.70;0.70;;;;;0.60;96934.00;;;;5011926;28;20433;-70
2023/03/28 05:40:50;;;;;;;0.90;0.90;;;;;1.10;96949.00;;;;5025378;28;20460;-70
2023/03/28 05:43:39;;;;;;;0.57;0.57;;;;;0.50;96949.00;;;;5022628;28;20416;-70
2023/03/28 05:46:28;;;;;;;1.00;1.00;;;;;0.80;96948.00;;;;5016799;28;20451;-70
2023/03/28 05:49:17;;;;;;;1.70;1.60;;;;;1.30;96959.00;;;;5018099;28;21029;-70
2023/03/28 05:52:06;;;;;;;2.33;2.10;;;;;1.60;96960.00;;;;5016687;28;21075;-70
2023/03/28 05:54:56;;;;;;;2.10;1.77;;;;;1.70;96959.00;;;;5025418;28;20490;-70
2023/03/28 05:57:45;;;;;;;8.00;4.33;;;;;1.50;96960.00;;;;5020846;28;20434;-70
2023/03/28 06:00:34;;;;;;;5.33;3.13;;;;;1.10;96963.00;;;;5026665;28;20827;-70
2023/03/28 06:03:24;;;;;;;3.63;1.70;;;;;0.90;96960.00;;;;5024708;28;21153;-69
2023/03/28 06:06:14;;;;;;;1.90;1.50;;;;;1.40;96965.00;;;;5026016;28;20429;-69
2023/03/28 06:09:03;;;;;;;1.37;1.20;;;;;1.60;96973.00;;;;5025225;28;20923;-69
2023/03/28 06:11:53;;;;;;;0.90;0.90;;;;;1.80;96986.00;;;;5028403;28;20435;-69
2023/03/28 06:14:43;;;;;;;0.73;0.73;;;;;1.70;96990.00;;;;5028804;28;20472;-70
2023/03/28 06:17:32;;;;;;;1.40;1.30;;;;;2.40;97006.00;;;;5023492;28;20420;-69
2023/03/28 06:20:21;;;;;;;0.73;0.73;;;;;1.80;96997.00;;;;5025174;28;20449;-71
2023/03/28 06:23:10;;;;;;;1.80;1.00;;;;;2.20;96997.00;;;;5024907;28;20432;-68
2023/03/28 06:25:59;;;;;;;1.47;1.37;;;;;3.00;97010.00;;;;5021861;28;20432;-68
2023/03/28 06:28:49;;;;;;;1.00;0.90;;;;;2.90;97021.00;;;;5019679;28;20425;-70
2023/03/28 06:31:38;;;;;;;1.47;1.10;;;;;2.60;96998.00;;;;5019906;28;20478;-69
2023/03/28 06:34:27;;;;;;;0.97;0.87;;;;;2.50;97012.00;;;;5023340;28;20463;-71
2023/03/28 06:37:16;;;;;;;0.50;0.50;;;;;2.10;97010.00;;;;5024947;28;20436;-69
2023/03/28 06:40:06;;;;;;;0.70;0.70;;;;;2.30;97010.00;;;;5024716;28;20467;-64
2023/03/28 06:42:55;;;;;;;0.50;0.50;;;;;2.60;97020.00;;;;5023713;28;20502;-70
2023/03/28 06:45:47;;;;;;;3.07;0.90;;;;;2.90;97017.00;;;;5026277;28;20888;-67
2023/03/28 06:48:36;;;;;;;0.77;0.60;;;;;2.70;97021.00;;;;5020889;28;20568;-72
2023/03/28 06:51:25;;;;;;;1.77;0.70;;;;;3.00;97014.00;;;;5028551;28;20488;-68
2023/03/28 06:54:14;;;;;;;0.50;0.50;;;;;2.40;97023.00;;;;5021420;28;20529;-69
2023/03/28 06:57:03;;;;;;;0.90;0.60;;;;;2.90;97035.00;;;;5020884;28;20440;-68
2023/03/28 06:59:52;;;;;;;0.40;0.40;;;;;3.20;97011.00;;;;5021076;28;21236;-66
2023/03/28 07:02:42;;;;;;;0.50;0.50;;;;;3.50;97031.00;;;;5020933;28;20452;-72
2023/03/28 07:05:31;;;;;;;0.63;0.63;;;;;3.10;97028.00;;;;5021630;28;20436;-68
2023/03/28 07:08:20;;;;;;;0.70;0.70;;;;;3.50;97041.00;;;;5024107;28;20563;-66
2023/03/28 07:11:10;;;;;;;1.10;0.90;;;;;4.00;97040.00;;;;5019398;28;20471;-67
2023/03/28 07:13:59;;;;;;;0.73;0.73;;;;;4.40;97053.00;;;;5024640;28;20514;-68
2023/03/28 07:16:48;;;;;;;0.63;0.60;;;;;4.40;97050.00;;;;5021121;28;20421;-66
2023/03/28 07:19:38;;;;;;;0.83;0.60;;;;;4.50;97052.00;;;;5020937;28;20439;-68
2023/03/28 07:22:27;;;;;;;2.27;1.13;;;;;4.90;97053.00;;;;5026446;28;20845;-68
2023/03/28 07:25:17;;;;;;;3.43;0.57;;;;;4.40;97055.00;;;;5019965;28;20499;-71
2023/03/28 07:28:06;;;;;;;0.57;0.40;;;;;4.40;97066.00;;;;5022113;28;20576;-68
2023/03/28 07:30:55;;;;;;;0.60;0.60;;;;;4.60;97075.00;;;;5020215;28;20444;-72
2023/03/28 07:33:44;;;;;;;0.47;0.30;;;;;4.90;97066.00;;;;5016452;28;20468;-73
2023/03/28 07:36:37;;;;;;;0.53;0.40;;;;;5.20;97087.00;;;;5017437;28;20436;-74
2023/03/28 07:39:26;;;;;;;0.43;0.43;;;;;5.10;97091.00;;;;5020142;28;20743;-70
2023/03/28 07:42:15;;;;;;;0.90;0.70;;;;;4.90;97094.00;;;;5023155;28;20296;-71
2023/03/28 07:45:05;;;;;;;0.47;0.43;;;;;5.50;97099.00;;;;5022086;28;20209;-67
2023/03/28 07:47:54;;;;;;;0.50;0.40;;;;;4.90;97100.00;;;;5022034;28;20247;-70
2023/03/28 07:50:43;;;;;;;0.90;0.90;;;;;5.70;97106.00;;;;5020762;28;20237;-64
2023/03/28 07:53:34;;;;;;;0.90;0.70;;;;;5.80;97099.00;;;;5026719;28;20233;-65
2023/03/28 07:56:23;;;;;;;1.07;0.60;;;;;5.80;97110.00;;;;5018936;28;20718;-67
2023/03/28 07:59:12;;;;;;;0.43;0.43;;;;;6.00;97131.00;;;;5020841;28;20260;-66
2023/03/28 08:02:01;;;;;;;0.40;0.40;;;;;5.70;97101.00;;;;5023895;28;20209;-64
2023/03/28 08:04:52;;;;;;;2.37;0.60;;;;;6.20;97106.00;;;;5020233;28;20248;-65
2023/03/28 08:07:44;;;;;;;0.30;0.30;;;;;6.20;97126.00;;;;5017090;28;20206;-70
2023/03/28 08:10:35;;;;;;;0.50;0.50;;;;;6.20;97135.00;;;;5018103;28;20229;-68
2023/03/28 08:13:24;;;;;;;0.60;0.60;;;;;5.90;97124.00;;;;5019393;28;20206;-75
2023/03/28 08:16:13;;;;;;;0.53;0.50;;;;;6.20;97133.00;;;;5023802;28;20216;-63
2023/03/28 08:19:03;;;;;;;0.53;0.53;;;;;5.90;97135.00;;;;5022980;28;20244;-65
2023/03/28 08:22:01;;;;;;;1.27;0.60;;;;;6.80;97140.00;;;;5027098;28;20331;-69
2023/03/28 08:24:50;;;;;;;0.50;0.50;;;;;6.40;97130.00;;;;5024395;28;20224;-74
2023/03/28 08:27:40;;;;;;;1.63;0.70;;;;;6.40;97130.00;;;;5024281;28;20216;-74
2023/03/28 08:30:30;;;;;;;0.53;0.50;;;;;6.10;97156.00;;;;5022734;28;20232;-66
2023/03/28 08:33:18;;;;;;;0.40;0.40;;;;;6.80;97148.00;;;;5024712;28;20209;-67
2023/03/28 08:36:09;;;;;;;0.50;0.40;;;;;6.80;97157.00;;;;5022196;28;20697;-66
2023/03/28 08:39:00;;;;;;;1.00;0.50;;;;;7.30;97150.00;;;;5025268;28;20306;-65
2023/03/28 08:42:04;;;;;;;0.60;0.60;;;;;6.60;97155.00;;;;5022560;28;20235;-70
2023/03/28 08:45:20;;;;;;;0.53;0.43;;;;;7.20;97167.00;;;;5023385;28;20271;-64
2023/03/28 08:48:16;;;;;;;0.40;0.40;;;;;6.70;97179.00;;;;5028134;28;20209;-70
2023/03/28 08:51:12;;;;;;;2.73;0.40;;;;;6.20;97172.00;;;;5025675;28;20280;-66
2023/03/28 08:54:07;;;;;;;0.40;0.40;;;;;5.70;97152.00;;;;5024280;28;20272;-66
2023/03/28 08:56:57;;;;;;;0.50;0.50;;;;;6.90;97174.00;;;;5024445;28;20493;-68
2023/03/28 08:59:53;;;;;;;1.57;0.50;;;;;6.70;97159.00;;;;5023416;28;20252;-71
2023/03/28 09:02:43;;;;;;;0.60;0.60;;;;;7.30;97157.00;;;;5021606;28;20688;-67
2023/03/28 09:05:41;;;;;;;0.50;0.50;;;;;7.70;97175.00;;;;5028428;28;20208;-69
2023/03/28 09:08:38;;;;;;;0.67;0.57;;;;;8.00;97152.00;;;;5024583;28;20213;-67
2023/03/28 09:11:39;;;;;;;0.50;0.50;;;;;8.10;97171.00;;;;5026968;28;20240;-68
2023/03/28 09:14:44;;;;;;;1.37;0.97;;;;;6.30;97183.00;;;;5022699;28;20610;-73
2023/03/28 09:17:37;;;;;;;0.97;0.87;;;;;7.30;97157.00;;;;5017774;28;20207;-62
2023/03/28 09:20:35;;;;;;;1.93;1.10;;;;;8.10;97175.00;;;;5027250;28;20216;-66
2023/03/28 09:23:39;;;;;;;0.50;0.40;;;;;7.30;97182.00;;;;5025106;28;20564;-65
2023/03/28 09:26:32;;;;;;;4.53;1.20;;;;;6.90;97176.00;;;;5022303;28;20269;-65
2023/03/28 09:29:23;;;;;;;0.63;0.63;;;;;6.40;97183.00;;;;5024472;28;20201;-73
2023/03/28 09:32:17;;;;;;;2.53;1.23;;;;;6.20;97177.00;;;;5028577;28;20232;-73
2023/03/28 09:35:15;;;;;;;1.50;0.80;;;;;8.00;97183.00;;;;5026104;28;20229;-67
2023/03/28 09:38:10;;;;;;;0.80;0.80;;;;;8.90;97175.00;;;;5022536;28;20206;-66
2023/03/28 09:41:02;;;;;;;0.53;0.53;;;;;7.70;97196.00;;;;5027699;28;20233;-65
2023/03/28 09:43:55;;;;;;;0.70;0.43;;;;;8.10;97209.00;;;;5028944;28;20205;-68
2023/03/28 09:46:47;;;;;;;0.57;0.57;;;;;6.70;97227.00;;;;5018557;28;20588;-62
2023/03/28 09:49:36;;;;;;;0.50;0.50;;;;;6.00;97210.00;;;;5028684;28;20225;-68
2023/03/28 09:52:25;;;;;;;0.67;0.60;;;;;6.40;97223.00;;;;5021254;28;20624;-65
2023/03/28 09:55:18;;;;;;;0.43;0.43;;;;;7.20;97242.00;;;;5023195;28;20225;-71
2023/03/28 09:58:08;;;;;;;0.40;0.40;;;;;5.50;97212.00;;;;5024066;28;20632;-68
2023/03/28 10:00:57;;;;;;;0.50;0.50;;;;;6.30;97195.00;;;;5025961;28;20229;-72
2023/03/28 10:03:53;;;;;;;1.60;0.70;;;;;7.00;97225.00;;;;5024754;28;20209;-65
2023/03/28 10:06:42;;;;;;;1.63;0.67;;;;;7.10;97249.00;;;;5023349;28;20216;-63
2023/03/28 10:09:31;;;;;;;1.83;0.60;;;;;7.20;97211.00;;;;5025683;28;20247;-73
2023/03/28 10:12:24;;;;;;;0.40;0.40;;;;;7.70;97214.00;;;;5022945;28;20217;-66
2023/03/28 10:15:32;;;;;;;0.40;0.40;;;;;8.60;97239.00;;;;5024196;28;20313;-66
2023/03/28 10:18:22;;;;;;;0.60;0.60;;;;;8.90;97242.00;;;;5021451;28;20205;-66
2023/03/28 10:21:16;;;;;;;0.60;0.60;;;;;9.30;97231.00;;;;5023532;28;20272;-66
2023/03/28 10:24:07;;;;;;;1.33;0.67;;;;;9.60;97252.00;;;;5027015;28;20205;-66
2023/03/28 10:26:58;;;;;;;0.60;0.60;;;;;9.50;97277.00;;;;5025627;28;20684;-66
2023/03/28 10:29:49;;;;;;;2.00;1.80;;;;;8.60;97243.00;;;;5027171;28;20213;-67
2023/03/28 10:32:38;;;;;;;4.43;3.93;;;;;9.40;97224.00;;;;5028047;28;20263;-71
2023/03/28 10:35:29;;;;;;;1.20;1.10;;;;;10.30;97241.00;;;;5026969;28;20220;-69
2023/03/28 10:38:21;;;;;;;0.67;0.67;;;;;9.10;97262.00;;;;5022036;28;20222;-67
2023/03/28 10:41:12;;;;;;;0.70;0.70;;;;;8.80;97244.00;;;;5024056;28;20228;-68
2023/03/28 10:44:17;;;;;;;7.63;3.67;;;;;9.80;97224.00;;;;5018843;28;20204;-67
2023/03/28 10:47:10;;;;;;;0.73;0.70;;;;;9.40;97214.00;;;;5019513;28;20283;-67
2023/03/28 10:50:00;;;;;;;0.40;0.40;;;;;10.40;97249.00;;;;5021670;28;20721;-67
2023/03/28 10:52:53;;;;;;;0.97;0.67;;;;;10.70;97209.00;;;;5023695;28;20208;-68
2023/03/28 10:55:51;;;;;;;0.80;0.80;;;;;8.50;97239.00;;;;5020540;28;20261;-73
2023/03/28 10:58:42;;;;;;;0.73;0.73;;;;;8.50;97246.00;;;;5002711;28;20264;-65
2023/03/28 11:01:38;;;;;;;0.80;0.80;;;;;8.10;97246.00;;;;5007030;28;20309;-66
2023/03/28 11:04:37;;;;;;;1.30;0.73;;;;;7.80;97267.00;;;;5003256;28;20198;-66
2023/03/28 11:07:31;;;;;;;0.50;0.50;;;;;8.00;97287.00;;;;5004256;28;20265;-66
2023/03/28 11:10:26;;;;;;;0.87;0.73;;;;;7.30;97246.00;;;;5000191;28;20282;-65
2023/03/28 11:13:23;;;;;;;1.13;0.50;;;;;9.50;97244.00;;;;5003618;28;20713;-68
2023/03/28 11:16:19;;;;;;;0.73;0.53;;;;;10.20;97255.00;;;;5007731;28;20265;-74
2023/03/28 11:19:15;;;;;;;0.60;0.60;;;;;10.00;97238.00;;;;5005983;28;20685;-71
2023/03/28 11:22:15;;;;;;;0.70;0.40;;;;;10.10;97236.00;;;;5005545;28;20557;-66
2023/03/28 11:25:17;;;;;;;0.40;0.40;;;;;9.50;97242.00;;;;5002782;28;20624;-64
2023/03/28 11:28:12;;;;;;;0.70;0.53;;;;;9.00;97253.00;;;;5001830;28;20206;-67
2023/03/28 11:31:01;;;;;;;0.60;0.60;;;;;8.40;97323.00;;;;4996506;28;20324;-75
2023/03/28 11:33:56;;;;;;;0.33;0.33;;;;;9.50;97241.00;;;;4999661;28;20198;-64
2023/03/28 11:36:49;;;;;;;0.50;0.50;;;;;9.50;97264.00;;;;5004065;28;20229;-66
2023/03/28 11:39:43;;;;;;;0.70;0.63;;;;;10.90;97278.00;;;;5005292;28;20772;-66
2023/03/28 11:42:35;;;;;;;1.90;0.50;;;;;11.70;97334.00;;;;5000882;28;20230;-66
2023/03/28 11:45:27;;;;;;;0.67;0.50;;;;;9.60;97271.00;;;;5005921;28;20767;-64
2023/03/28 11:48:28;;;;;;;0.60;0.60;;;;;11.70;97259.00;;;;5005816;28;20205;-64
2023/03/28 11:51:20;;;;;;;1.17;0.60;;;;;11.90;97341.00;;;;5005660;28;20264;-67
2023/03/28 11:54:13;;;;;;;1.70;0.93;;;;;11.40;97265.00;;;;5004956;28;20345;-73
2023/03/28 11:57:08;;;;;;;2.10;1.90;;;;;11.80;97261.00;;;;5010385;28;20635;-73
2023/03/28 12:00:04;;;;;;;1.90;0.60;;;;;12.60;97254.00;;;;5006264;28;20233;-67
2023/03/28 12:02:58;;;;;;;0.50;0.50;;;;;12.70;97315.00;;;;5003693;28;20202;-68
2023/03/28 12:05:50;;;;;;;0.60;0.50;;;;;11.90;97295.00;;;;5005665;28;20203;-69
2023/03/28 12:08:41;;;;;;;0.43;0.43;;;;;11.70;97310.00;;;;5009662;28;20218;-68
2023/03/28 12:11:33;;;;;;;0.40;0.40;;;;;13.60;97234.00;;;;5010762;28;20257;-67
2023/03/28 12:14:33;;;;;;;0.73;0.53;;;;;12.60;97228.00;;;;5009408;28;20198;-69
2023/03/28 12:17:25;;;;;;;1.37;0.60;;;;;13.90;97316.00;;;;5005685;28;20226;-71
2023/03/28 12:20:17;;;;;;;1.00;0.83;;;;;12.10;97317.00;;;;5009371;28;20222;-73
2023/03/28 12:23:11;;;;;;;3.53;0.60;;;;;12.00;97217.00;;;;5004603;28;20213;-73
2023/03/28 12:26:08;;;;;;;3.00;0.80;;;;;12.20;97233.00;;;;5005171;28;20213;-69
2023/03/28 12:29:00;;;;;;;1.83;0.97;;;;;12.70;97295.00;;;;5013888;28;20209;-73
2023/03/28 12:31:55;;;;;;;0.60;0.57;;;;;9.50;97209.00;;;;5010670;28;20209;-72
2023/03/28 12:34:49;;;;;;;0.67;0.67;;;;;11.40;97248.00;;;;5008523;28;20202;-65
2023/03/28 12:37:42;;;;;;;0.50;0.50;;;;;11.30;97271.00;;;;5005477;28;20315;-64
2023/03/28 12:40:45;;;;;;;1.93;0.80;;;;;12.30;97301.00;;;;5000743;28;20217;-65
2023/03/28 12:43:41;;;;;;;3.53;1.67;;;;;11.60;97211.00;;;;5005556;28;20202;-70
2023/03/28 12:46:35;;;;;;;2.77;1.90;;;;;12.40;97316.00;;;;5007776;28;20206;-65
2023/03/28 12:49:33;;;;;;;0.93;0.70;;;;;12.60;97256.00;;;;5009520;28;20213;-66
2023/03/28 12:52:25;;;;;;;0.70;0.60;;;;;14.40;97252.00;;;;5010063;28;20821;-66
2023/03/28 12:55:41;;;;;;;0.60;0.60;;;;;14.30;97240.00;;;;5010149;28;20268;-64
2023/03/28 12:58:33;;;;;;;0.57;0.57;;;;;12.90;97231.00;;;;5003680;28;20753;-76
2023/03/28 13:01:35;;;;;;;0.43;0.43;;;;;12.70;97213.00;;;;5008815;28;20229;-66
2023/03/28 13:04:29;;;;;;;1.17;0.77;;;;;14.40;97278.00;;;;5006672;28;20212;-66
2023/03/28 13:07:23;;;;;;;0.50;0.50;;;;;12.20;97247.00;;;;5007650;28;20199;-65
2023/03/28 13:10:18;;;;;;;0.90;0.50;;;;;9.80;97210.00;;;;5002513;28;20234;-68
2023/03/28 13:13:17;;;;;;;1.03;0.77;;;;;11.20;97229.00;;;;5003991;28;20254;-75
2023/03/28 13:16:12;;;;;;;1.07;0.40;;;;;11.00;97199.00;;;;5007737;28;20704;-74
2023/03/28 13:19:07;;;;;;;0.50;0.47;;;;;11.60;97294.00;;;;5009649;28;20202;-68
2023/03/28 13:21:59;;;;;;;1.50;0.53;;;;;11.70;97210.00;;;;5006230;28;20218;-68
2023/03/28 13:24:48;;;;;;;0.60;0.60;;;;;12.60;97217.00;;;;5005660;28;20205;-68
2023/03/28 13:27:36;;;;;;;4.40;0.87;;;;;10.80;97235.00;;;;5006318;28;20567;-74
2023/03/28 13:30:27;;;;;;;1.17;0.73;;;;;8.80;97248.00;;;;5009239;28;20229;-70
2023/03/28 13:33:24;;;;;;;0.60;0.60;;;;;9.60;97189.00;;;;5010657;28;20216;-64
2023/03/28 13:36:18;;;;;;;0.60;0.57;;;;;11.50;97218.00;;;;4997477;28;20394;-70
2023/03/28 13:39:19;;;;;;;1.07;0.90;;;;;11.00;97207.00;;;;5002651;28;20585;-67
2023/03/28 13:42:26;;;;;;;0.60;0.60;;;;;12.70;97222.00;;;;5005486;28;20709;-70
2023/03/28 13:45:21;;;;;;;0.50;0.50;;;;;9.50;97183.00;;;;5008621;28;20288;-73
2023/03/28 13:48:11;;;;;;;0.60;0.60;;;;;13.90;97218.00;;;;5003355;28;20212;-64
2023/03/28 13:51:04;;;;;;;0.47;0.43;;;;;14.80;97245.00;;;;5001564;28;20239;-65
2023/03/28 13:53:53;;;;;;;1.47;0.80;;;;;10.90;97190.00;;;;5005516;28;20209;-74
2023/03/28 13:56:46;;;;;;;0.77;0.60;;;;;12.00;97213.00;;;;5007529;28;20226;-66
2023/03/28 13:59:37;;;;;;;0.90;0.70;;;;;13.30;97223.00;;;;5003821;28;20604;-65
2023/03/28 14:02:36;;;;;;;1.47;0.63;;;;;11.70;97201.00;;;;5005198;28;20261;-74
2023/03/28 14:05:26;;;;;;;0.97;0.50;;;;;10.80;97214.00;;;;5003318;28;20202;-72
2023/03/28 14:08:24;;;;;;;0.67;0.60;;;;;9.80;97239.00;;;;5003157;28;20568;-70
2023/03/28 14:11:16;;;;;;;1.00;0.87;;;10.00;49.70;8.50;97184.00;;;;5006351;28;20229;-70
2023/03/28 14:14:12;;;;;;;0.57;0.57;;;9.90;50.30;10.40;97212.00;;;;5004476;28;20609;-70
2023/03/28 14:17:03;;;;;;;1.43;1.00;;;9.70;50.60;9.90;97207.00;;;;5000285;28;20238;-74
2023/03/28 14:19:55;;;;;;;0.70;0.60;;;9.80;50.40;9.50;97207.00;;;;5005784;28;20234;-72
2023/03/28 14:22:49;;;;;;;0.60;0.40;;;9.70;49.60;10.20;97220.00;;;;5000901;28;20198;-66
2023/03/28 14:25:45;;;;;;;0.40;0.40;;;9.90;49.30;9.80;97270.00;;;;5004927;28;20202;-73
2023/03/28 14:28:34;;;;;;;1.40;0.63;;;10.10;48.70;11.40;97290.00;;;;5008916;28;20284;-67
2023/03/28 14:31:37;;;;;;;1.83;0.63;;;10.10;49.10;12.40;97302.00;;;;5006445;28;20894;-66